Time,TemperatureF,DewpointF,PressureIn,WindDirection,WindDirectionDegrees,WindSpeedMPH,WindSpeedGustMPH,Humidity,HourlyPrecipIn,Conditions,Clouds,dailyrainin,SoftwareType,DateUTC
2013-11-20 00:00:00,51.0,43.0,-100.00,ESE,105,3.0,-999.0,71,0.00,,,-99.99,,2013-11-20 08:00:00,
2013-11-20 00:42:00,51.0,43.0,-100.00,ESE,105,3.0,-999.0,71,0.00,,,-99.99,,2013-11-20 08:42:00,
2013-11-20 00:52:00,51.0,43.0,-100.00,ESE,105,3.0,-999.0,71,0.00,,,-99.99,,2013-11-20 08:52:00,
2013-11-20 01:00:00,52.0,42.0,-100.00,SE,146,0.0,-999.0,68,0.00,,,-99.99,,2013-11-20 09:00:00,
2013-11-20 01:43:00,52.0,42.0,-100.00,SE,146,0.0,-999.0,68,0.00,,,-99.99,,2013-11-20 09:43:00,
2013-11-20 01:54:00,52.0,42.0,-100.00,SE,146,0.0,-999.0,68,0.00,,,-99.99,,2013-11-20 09:54:00,
2013-11-20 02:00:00,53.0,43.0,-100.00,SE,127,3.0,-999.0,67,0.00,,,-99.99,,2013-11-20 10:00:00,
2013-11-20 02:43:00,53.0,43.0,-100.00,SE,127,3.0,-999.0,67,0.00,,,-99.99,,2013-11-20 10:43:00,
2013-11-20 02:53:00,53.0,43.0,-100.00,SE,127,3.0,-999.0,67,0.00,,,-99.99,,2013-11-20 10:53:00,
2013-11-20 03:00:00,53.0,43.0,-100.00,ESE,103,1.0,-999.0,68,0.00,,,-99.99,,2013-11-20 11:00:00,
2013-11-20 03:43:00,53.0,43.0,-100.00,ESE,103,1.0,-999.0,68,0.00,,,-99.99,,2013-11-20 11:43:00,
2013-11-20 03:52:00,53.0,43.0,-100.00,ESE,103,1.0,-999.0,68,0.00,,,-99.99,,2013-11-20 11:52:00,
2013-11-20 04:00:00,52.0,46.0,-100.00,NW,309,2.0,-999.0,80,0.04,,,-99.99,,2013-11-20 12:00:00,
2013-11-20 04:42:00,52.0,46.0,-100.00,NW,309,2.0,-999.0,80,0.04,,,-99.99,,2013-11-20 12:42:00,
2013-11-20 04:52:00,52.0,46.0,-100.00,NW,309,2.0,-999.0,80,0.04,,,-99.99,,2013-11-20 12:52:00,
2013-11-20 05:00:00,52.0,47.0,-100.00,NW,312,2.0,-999.0,83,0.00,,,-99.99,,2013-11-20 13:00:00,
2013-11-20 05:42:00,52.0,47.0,-100.00,NW,312,2.0,-999.0,83,0.00,,,-99.99,,2013-11-20 13:42:00,
2013-11-20 05:52:00,52.0,47.0,-100.00,NW,312,2.0,-999.0,83,0.00,,,-99.99,,2013-11-20 13:52:00,
2013-11-20 06:00:00,51.0,47.0,-100.00,South,175,3.0,-999.0,86,0.00,,,-99.99,,2013-11-20 14:00:00,
2013-11-20 06:42:00,51.0,47.0,-100.00,South,175,3.0,-999.0,86,0.00,,,-99.99,,2013-11-20 14:42:00,
2013-11-20 06:52:00,51.0,47.0,-100.00,South,175,3.0,-999.0,86,0.00,,,-99.99,,2013-11-20 14:52:00,
2013-11-20 07:00:00,52.0,48.0,-100.00,East,99,4.0,-999.0,85,0.00,,,-99.99,,2013-11-20 15:00:00,
2013-11-20 07:43:00,52.0,48.0,-100.00,East,99,4.0,-999.0,85,0.00,,,-99.99,,2013-11-20 15:43:00,
2013-11-20 07:53:00,52.0,48.0,-100.00,East,99,4.0,-999.0,85,0.00,,,-99.99,,2013-11-20 15:53:00,
2013-11-20 08:00:00,51.0,47.0,-100.00,SSE,164,1.0,-999.0,85,0.00,,,-99.99,,2013-11-20 16:00:00,
2013-11-20 08:43:00,51.0,47.0,-100.00,SSE,164,1.0,-999.0,85,0.00,,,-99.99,,2013-11-20 16:43:00,
2013-11-20 08:52:00,51.0,47.0,-100.00,SSE,164,1.0,-999.0,85,0.00,,,-99.99,,2013-11-20 16:52:00,
2013-11-20 09:00:00,56.0,48.0,-100.00,SE,133,3.0,-999.0,72,0.00,,,-99.99,,2013-11-20 17:00:00,
2013-11-20 09:42:00,56.0,48.0,-100.00,SE,133,3.0,-999.0,72,0.00,,,-99.99,,2013-11-20 17:42:00,
2013-11-20 09:52:00,56.0,48.0,-100.00,SE,133,3.0,-999.0,72,0.00,,,-99.99,,2013-11-20 17:52:00,
2013-11-20 10:00:00,58.0,47.0,-100.00,NNW,340,1.0,-999.0,66,0.00,,,-99.99,,2013-11-20 18:00:00,
2013-11-20 10:43:00,58.0,47.0,-100.00,NNW,340,1.0,-999.0,66,0.00,,,-99.99,,2013-11-20 18:43:00,
2013-11-20 10:52:00,58.0,47.0,-100.00,NNW,340,1.0,-999.0,66,0.00,,,-99.99,,2013-11-20 18:52:00,
2013-11-20 11:00:00,60.0,46.0,-100.00,ESE,105,0.0,-999.0,58,0.00,,,-99.99,,2013-11-20 19:00:00,
2013-11-20 11:42:00,60.0,46.0,-100.00,ESE,105,0.0,-999.0,58,0.00,,,-99.99,,2013-11-20 19:42:00,
2013-11-20 11:52:00,60.0,46.0,-100.00,ESE,105,0.0,-999.0,58,0.00,,,-99.99,,2013-11-20 19:52:00,
2013-11-20 12:00:00,64.0,45.0,-100.00,East,97,1.0,-999.0,49,0.00,,,-99.99,,2013-11-20 20:00:00,
2013-11-20 12:42:00,64.0,45.0,-100.00,East,97,1.0,-999.0,49,0.00,,,-99.99,,2013-11-20 20:42:00,
2013-11-20 12:52:00,64.0,45.0,-100.00,East,97,1.0,-999.0,49,0.00,,,-99.99,,2013-11-20 20:52:00,
2013-11-20 13:00:00,65.0,44.0,-100.00,NE,49,2.0,-999.0,46,0.00,,,-99.99,,2013-11-20 21:00:00,
2013-11-20 13:43:00,65.0,44.0,-100.00,NE,49,2.0,-999.0,46,0.00,,,-99.99,,2013-11-20 21:43:00,
2013-11-20 13:53:00,65.0,44.0,-100.00,NE,49,2.0,-999.0,46,0.00,,,-99.99,,2013-11-20 21:53:00,
2013-11-20 14:00:00,67.0,42.0,-100.00,NNE,26,2.0,-999.0,40,0.00,,,-99.99,,2013-11-20 22:00:00,
2013-11-20 14:42:00,67.0,42.0,-100.00,NNE,26,2.0,-999.0,40,0.00,,,-99.99,,2013-11-20 22:42:00,
2013-11-20 14:53:00,67.0,42.0,-100.00,NNE,26,2.0,-999.0,40,0.00,,,-99.99,,2013-11-20 22:53:00,
2013-11-20 15:00:00,69.0,44.0,-100.00,SSE,149,3.0,-999.0,40,0.00,,,-99.99,,2013-11-20 23:00:00,
2013-11-20 15:43:00,69.0,44.0,-100.00,SSE,149,3.0,-999.0,40,0.00,,,-99.99,,2013-11-20 23:43:00,
2013-11-20 15:52:00,69.0,44.0,-100.00,SSE,149,3.0,-999.0,40,0.00,,,-99.99,,2013-11-20 23:52:00,
2013-11-20 16:00:00,67.0,44.0,-100.00,NNW,329,3.0,-999.0,43,0.00,,,-99.99,,2013-11-21 00:00:00,
2013-11-20 16:42:00,67.0,44.0,-100.00,NNW,329,3.0,-999.0,43,0.00,,,-99.99,,2013-11-21 00:42:00,
2013-11-20 16:52:00,67.0,44.0,-100.00,NNW,329,3.0,-999.0,43,0.00,,,-99.99,,2013-11-21 00:52:00,
2013-11-20 17:00:00,66.0,45.0,-100.00,NNE,13,2.0,-999.0,46,0.00,,,-99.99,,2013-11-21 01:00:00,
2013-11-20 17:42:00,66.0,45.0,-100.00,NNE,13,2.0,-999.0,46,0.00,,,-99.99,,2013-11-21 01:42:00,
2013-11-20 17:52:00,66.0,45.0,-100.00,NNE,13,2.0,-999.0,46,0.00,,,-99.99,,2013-11-21 01:52:00,
2013-11-20 18:00:00,61.0,50.0,-100.00,NNW,338,2.0,-999.0,64,0.00,,,-99.99,,2013-11-21 02:00:00,
2013-11-20 18:52:00,61.0,50.0,-100.00,NNW,338,2.0,-999.0,64,0.00,,,-99.99,,2013-11-21 02:52:00,
2013-11-20 19:00:00,59.0,49.0,-100.00,South,191,2.0,-999.0,68,0.00,,,-99.99,,2013-11-21 03:00:00,
2013-11-20 19:43:00,59.0,49.0,-100.00,South,191,2.0,-999.0,68,0.00,,,-99.99,,2013-11-21 03:43:00,
2013-11-20 19:54:00,59.0,49.0,-100.00,South,191,2.0,-999.0,68,0.00,,,-99.99,,2013-11-21 03:54:00,
2013-11-20 20:00:00,55.0,47.0,-100.00,SSW,197,4.0,-999.0,74,0.00,,,-99.99,,2013-11-21 04:00:00,
2013-11-20 20:43:00,55.0,47.0,-100.00,SSW,197,4.0,-999.0,74,0.00,,,-99.99,,2013-11-21 04:43:00,
2013-11-20 20:53:00,55.0,47.0,-100.00,SSW,197,4.0,-999.0,74,0.00,,,-99.99,,2013-11-21 04:53:00,
2013-11-20 21:00:00,57.0,49.0,-100.00,SSE,150,2.0,-999.0,75,0.00,,,-99.99,,2013-11-21 05:00:00,
2013-11-20 21:43:00,57.0,49.0,-100.00,SSE,150,2.0,-999.0,75,0.00,,,-99.99,,2013-11-21 05:43:00,
2013-11-20 21:52:00,57.0,49.0,-100.00,SSE,150,2.0,-999.0,75,0.00,,,-99.99,,2013-11-21 05:52:00,
2013-11-20 22:00:00,56.0,53.0,-100.00,North,3,7.0,-999.0,88,0.37,,,-99.99,,2013-11-21 06:00:00,
2013-11-20 22:43:00,56.0,53.0,-100.00,North,3,7.0,-999.0,88,0.37,,,-99.99,,2013-11-21 06:43:00,
2013-11-20 22:52:00,56.0,53.0,-100.00,North,3,7.0,-999.0,88,0.37,,,-99.99,,2013-11-21 06:52:00,
2013-11-20 23:00:00,56.0,53.0,-100.00,NNE,19,5.0,-999.0,88,0.01,,,-99.99,,2013-11-21 07:00:00,
2013-11-20 23:42:00,56.0,53.0,-100.00,NNE,19,5.0,-999.0,88,0.01,,,-99.99,,2013-11-21 07:42:00,
2013-11-20 23:52:00,56.0,53.0,-100.00,NNE,19,5.0,-999.0,88,0.01,,,-99.99,,2013-11-21 07:52:00,